sensor_id;sensor_type;location;lat;lon;timestamp;temperature;humidity
7290;DHT22;3686;52.678;13.252;2022-07-29T00:02:12;16.70;99.90
7290;DHT22;3686;52.678;13.252;2022-07-29T00:04:38;16.70;99.90
7290;DHT22;3686;52.678;13.252;2022-07-29T00:07:04;16.60;99.90
7290;DHT22;3686;52.678;13.252;2022-07-29T00:09:30;16.60;99.90
7290;DHT22;3686;52.678;13.252;2022-07-29T00:11:59;16.60;99.90
7290;DHT22;3686;52.678;13.252;2022-07-29T00:14:25;16.50;99.90
7290;DHT22;3686;52.678;13.252;2022-07-29T00:16:51;16.60;99.90
7290;DHT22;3686;52.678;13.252;2022-07-29T00:19:17;16.60;99.90
7290;DHT22;3686;52.678;13.252;2022-07-29T00:21:42;16.60;99.90
7290;DHT22;3686;52.678;13.252;2022-07-29T00:24:08;16.60;99.90
7290;DHT22;3686;52.678;13.252;2022-07-29T00:26:33;16.50;99.90
7290;DHT22;3686;52.678;13.252;2022-07-29T00:29:00;16.50;99.90
7290;DHT22;3686;52.678;13.252;2022-07-29T00:31:26;16.40;99.90
7290;DHT22;3686;52.678;13.252;2022-07-29T00:33:52;16.40;99.90
7290;DHT22;3686;52.678;13.252;2022-07-29T00:36:18;16.40;99.90
7290;DHT22;3686;52.678;13.252;2022-07-29T00:38:46;16.40;99.90
7290;DHT22;3686;52.678;13.252;2022-07-29T00:41:12;16.40;99.90
7290;DHT22;3686;52.678;13.252;2022-07-29T00:43:38;16.40;99.90
7290;DHT22;3686;52.678;13.252;2022-07-29T00:46:03;16.30;99.90
7290;DHT22;3686;52.678;13.252;2022-07-29T00:48:29;16.40;99.90
7290;DHT22;3686;52.678;13.252;2022-07-29T00:50:57;16.40;99.90
7290;DHT22;3686;52.678;13.252;2022-07-29T00:53:23;16.40;99.90
7290;DHT22;3686;52.678;13.252;2022-07-29T00:55:50;16.40;99.90
7290;DHT22;3686;52.678;13.252;2022-07-29T00:58:16;16.30;99.90
7290;DHT22;3686;52.678;13.252;2022-07-29T01:00:41;16.30;99.90
7290;DHT22;3686;52.678;13.252;2022-07-29T01:03:08;16.30;99.90
7290;DHT22;3686;52.678;13.252;2022-07-29T01:05:34;16.30;99.90
7290;DHT22;3686;52.678;13.252;2022-07-29T01:08:00;16.20;99.90
7290;DHT22;3686;52.678;13.252;2022-07-29T01:10:27;16.20;99.90
7290;DHT22;3686;52.678;13.252;2022-07-29T01:12:57;16.20;99.90
7290;DHT22;3686;52.678;13.252;2022-07-29T01:15:24;16.10;99.90
7290;DHT22;3686;52.678;13.252;2022-07-29T01:18:01;16.00;99.90
7290;DHT22;3686;52.678;13.252;2022-07-29T01:23:52;16.00;99.90
7290;DHT22;3686;52.678;13.252;2022-07-29T01:29:22;15.90;99.90
7290;DHT22;3686;52.678;13.252;2022-07-29T01:32:04;15.80;99.90
7290;DHT22;3686;52.678;13.252;2022-07-29T01:34:35;15.80;99.90
7290;DHT22;3686;52.678;13.252;2022-07-29T01:37:28;15.70;99.90
7290;DHT22;3686;52.678;13.252;2022-07-29T01:39:57;15.70;1.00
7290;DHT22;3686;52.678;13.252;2022-07-29T01:42:32;15.60;99.90
7290;DHT22;3686;52.678;13.252;2022-07-29T01:45:06;15.70;1.00
7290;DHT22;3686;52.678;13.252;2022-07-29T01:47:39;15.60;1.00
7290;DHT22;3686;52.678;13.252;2022-07-29T01:50:08;15.60;1.00
7290;DHT22;3686;52.678;13.252;2022-07-29T01:52:58;15.60;1.00
7290;DHT22;3686;52.678;13.252;2022-07-29T01:55:31;15.60;1.00
7290;DHT22;3686;52.678;13.252;2022-07-29T01:57:58;15.60;1.00
7290;DHT22;3686;52.678;13.252;2022-07-29T02:00:25;15.70;1.00
7290;DHT22;3686;52.678;13.252;2022-07-29T02:02:53;15.70;1.00
7290;DHT22;3686;52.678;13.252;2022-07-29T02:05:21;15.70;1.00
7290;DHT22;3686;52.678;13.252;2022-07-29T02:07:49;15.70;1.00
7290;DHT22;3686;52.678;13.252;2022-07-29T02:10:19;15.70;1.00
7290;DHT22;3686;52.678;13.252;2022-07-29T02:12:47;15.70;1.00
7290;DHT22;3686;52.678;13.252;2022-07-29T02:15:14;15.70;1.00
7290;DHT22;3686;52.678;13.252;2022-07-29T02:17:45;15.70;1.00
7290;DHT22;3686;52.678;13.252;2022-07-29T02:20:12;15.70;1.00
7290;DHT22;3686;52.678;13.252;2022-07-29T02:22:39;15.70;1.00
7290;DHT22;3686;52.678;13.252;2022-07-29T02:25:10;15.60;1.00
7290;DHT22;3686;52.678;13.252;2022-07-29T02:27:37;15.60;1.00
7290;DHT22;3686;52.678;13.252;2022-07-29T02:30:05;15.60;1.00
7290;DHT22;3686;52.678;13.252;2022-07-29T02:32:32;15.60;1.00
7290;DHT22;3686;52.678;13.252;2022-07-29T02:35:00;15.60;1.00
7290;DHT22;3686;52.678;13.252;2022-07-29T02:37:27;15.60;1.00
7290;DHT22;3686;52.678;13.252;2022-07-29T02:39:54;15.70;1.00
7290;DHT22;3686;52.678;13.252;2022-07-29T02:42:22;15.60;1.00
7290;DHT22;3686;52.678;13.252;2022-07-29T02:44:49;15.60;1.00
7290;DHT22;3686;52.678;13.252;2022-07-29T02:47:36;15.60;1.00
7290;DHT22;3686;52.678;13.252;2022-07-29T02:50:21;15.60;1.00
7290;DHT22;3686;52.678;13.252;2022-07-29T02:52:57;15.60;1.00
7290;DHT22;3686;52.678;13.252;2022-07-29T02:55:33;15.60;1.00
7290;DHT22;3686;52.678;13.252;2022-07-29T02:58:03;15.50;1.00
7290;DHT22;3686;52.678;13.252;2022-07-29T03:00:32;15.50;1.00
7290;DHT22;3686;52.678;13.252;2022-07-29T03:03:01;15.50;1.00
7290;DHT22;3686;52.678;13.252;2022-07-29T03:05:29;15.50;1.00
7290;DHT22;3686;52.678;13.252;2022-07-29T03:08:03;15.50;1.00
7290;DHT22;3686;52.678;13.252;2022-07-29T03:10:31;15.40;1.00
7290;DHT22;3686;52.678;13.252;2022-07-29T03:12:57;15.50;1.00
7290;DHT22;3686;52.678;13.252;2022-07-29T03:15:23;15.50;1.00
7290;DHT22;3686;52.678;13.252;2022-07-29T03:17:50;15.50;1.00
7290;DHT22;3686;52.678;13.252;2022-07-29T03:20:17;15.50;1.00
7290;DHT22;3686;52.678;13.252;2022-07-29T03:22:43;15.50;1.00
7290;DHT22;3686;52.678;13.252;2022-07-29T03:25:13;15.50;1.00
7290;DHT22;3686;52.678;13.252;2022-07-29T03:27:39;15.50;1.00
7290;DHT22;3686;52.678;13.252;2022-07-29T03:30:06;15.50;1.00
7290;DHT22;3686;52.678;13.252;2022-07-29T03:32:33;15.50;1.00
7290;DHT22;3686;52.678;13.252;2022-07-29T03:34:58;15.50;1.00
7290;DHT22;3686;52.678;13.252;2022-07-29T03:37:24;15.40;1.00
7290;DHT22;3686;52.678;13.252;2022-07-29T03:39:51;15.40;1.00
7290;DHT22;3686;52.678;13.252;2022-07-29T03:42:19;15.40;1.00
7290;DHT22;3686;52.678;13.252;2022-07-29T03:44:48;15.40;1.00
7290;DHT22;3686;52.678;13.252;2022-07-29T03:47:15;15.40;1.00
7290;DHT22;3686;52.678;13.252;2022-07-29T03:49:44;15.40;1.00
7290;DHT22;3686;52.678;13.252;2022-07-29T03:52:12;15.40;1.00
7290;DHT22;3686;52.678;13.252;2022-07-29T03:54:38;15.40;1.00
7290;DHT22;3686;52.678;13.252;2022-07-29T03:57:05;15.40;1.00
7290;DHT22;3686;52.678;13.252;2022-07-29T03:59:32;15.40;1.00
7290;DHT22;3686;52.678;13.252;2022-07-29T04:02:05;15.40;1.00
7290;DHT22;3686;52.678;13.252;2022-07-29T04:04:34;15.40;1.00
7290;DHT22;3686;52.678;13.252;2022-07-29T04:07:00;15.40;1.00
7290;DHT22;3686;52.678;13.252;2022-07-29T04:09:26;15.40;1.00
7290;DHT22;3686;52.678;13.252;2022-07-29T04:11:52;15.40;1.00
7290;DHT22;3686;52.678;13.252;2022-07-29T04:14:18;15.40;1.00
7290;DHT22;3686;52.678;13.252;2022-07-29T04:16:44;15.40;1.00
7290;DHT22;3686;52.678;13.252;2022-07-29T04:19:10;15.40;1.00
7290;DHT22;3686;52.678;13.252;2022-07-29T04:21:41;15.40;1.00
7290;DHT22;3686;52.678;13.252;2022-07-29T04:24:08;15.50;1.00
7290;DHT22;3686;52.678;13.252;2022-07-29T04:26:34;15.50;1.00
7290;DHT22;3686;52.678;13.252;2022-07-29T04:29:00;15.50;1.00
7290;DHT22;3686;52.678;13.252;2022-07-29T04:31:26;15.50;1.00
7290;DHT22;3686;52.678;13.252;2022-07-29T04:33:52;15.50;1.00
7290;DHT22;3686;52.678;13.252;2022-07-29T04:36:17;15.40;1.00
7290;DHT22;3686;52.678;13.252;2022-07-29T04:38:43;15.40;79.50
7290;DHT22;3686;52.678;13.252;2022-07-29T04:41:09;15.50;1.00
7290;DHT22;3686;52.678;13.252;2022-07-29T04:43:35;15.50;9.60
7290;DHT22;3686;52.678;13.252;2022-07-29T04:46:02;15.50;31.40
7290;DHT22;3686;52.678;13.252;2022-07-29T04:48:28;15.60;1.00
7290;DHT22;3686;52.678;13.252;2022-07-29T04:50:55;15.60;1.00
7290;DHT22;3686;52.678;13.252;2022-07-29T04:53:20;15.70;1.00
7290;DHT22;3686;52.678;13.252;2022-07-29T04:55:46;15.70;1.00
7290;DHT22;3686;52.678;13.252;2022-07-29T04:58:12;15.70;1.00
7290;DHT22;3686;52.678;13.252;2022-07-29T05:00:38;15.80;1.00
7290;DHT22;3686;52.678;13.252;2022-07-29T05:03:04;15.90;1.00
7290;DHT22;3686;52.678;13.252;2022-07-29T05:05:30;15.90;1.00
7290;DHT22;3686;52.678;13.252;2022-07-29T05:07:55;16.00;1.00
7290;DHT22;3686;52.678;13.252;2022-07-29T05:10:22;16.00;1.00
7290;DHT22;3686;52.678;13.252;2022-07-29T05:12:47;16.10;1.00
7290;DHT22;3686;52.678;13.252;2022-07-29T05:15:14;16.20;1.00
7290;DHT22;3686;52.678;13.252;2022-07-29T05:17:40;16.30;1.00
7290;DHT22;3686;52.678;13.252;2022-07-29T05:20:06;16.40;1.00
7290;DHT22;3686;52.678;13.252;2022-07-29T05:22:32;16.60;1.00
7290;DHT22;3686;52.678;13.252;2022-07-29T05:24:58;16.70;1.00
7290;DHT22;3686;52.678;13.252;2022-07-29T05:27:23;16.90;1.00
7290;DHT22;3686;52.678;13.252;2022-07-29T05:29:49;17.00;1.00
7290;DHT22;3686;52.678;13.252;2022-07-29T05:32:15;17.00;1.00
7290;DHT22;3686;52.678;13.252;2022-07-29T05:34:41;17.00;99.90
7290;DHT22;3686;52.678;13.252;2022-07-29T05:37:06;17.10;99.90
7290;DHT22;3686;52.678;13.252;2022-07-29T05:39:32;17.10;99.90
7290;DHT22;3686;52.678;13.252;2022-07-29T05:41:58;17.10;99.90
7290;DHT22;3686;52.678;13.252;2022-07-29T05:44:24;17.10;99.90
7290;DHT22;3686;52.678;13.252;2022-07-29T05:46:49;17.20;99.90
7290;DHT22;3686;52.678;13.252;2022-07-29T05:49:15;17.20;99.90
7290;DHT22;3686;52.678;13.252;2022-07-29T05:51:41;17.20;99.90
7290;DHT22;3686;52.678;13.252;2022-07-29T05:54:06;17.20;99.90
7290;DHT22;3686;52.678;13.252;2022-07-29T05:56:32;17.20;99.90
7290;DHT22;3686;52.678;13.252;2022-07-29T05:58:58;17.20;99.90
7290;DHT22;3686;52.678;13.252;2022-07-29T06:01:23;17.20;99.90
7290;DHT22;3686;52.678;13.252;2022-07-29T06:03:49;17.20;99.90
7290;DHT22;3686;52.678;13.252;2022-07-29T06:06:15;17.20;99.90
7290;DHT22;3686;52.678;13.252;2022-07-29T06:08:40;17.20;99.90
7290;DHT22;3686;52.678;13.252;2022-07-29T06:11:07;17.30;99.90
7290;DHT22;3686;52.678;13.252;2022-07-29T06:13:34;17.40;99.90
7290;DHT22;3686;52.678;13.252;2022-07-29T06:15:59;17.50;99.90
7290;DHT22;3686;52.678;13.252;2022-07-29T06:18:25;17.60;99.90
7290;DHT22;3686;52.678;13.252;2022-07-29T06:20:51;17.70;99.90
7290;DHT22;3686;52.678;13.252;2022-07-29T06:23:17;17.80;99.90
7290;DHT22;3686;52.678;13.252;2022-07-29T06:25:43;17.80;99.90
7290;DHT22;3686;52.678;13.252;2022-07-29T06:28:09;17.90;99.90
7290;DHT22;3686;52.678;13.252;2022-07-29T06:30:35;17.90;99.90
7290;DHT22;3686;52.678;13.252;2022-07-29T06:33:00;17.90;99.90
7290;DHT22;3686;52.678;13.252;2022-07-29T06:35:27;17.90;99.90
7290;DHT22;3686;52.678;13.252;2022-07-29T06:37:53;17.90;99.90
7290;DHT22;3686;52.678;13.252;2022-07-29T06:40:19;17.90;99.90
7290;DHT22;3686;52.678;13.252;2022-07-29T06:43:03;17.90;99.90
7290;DHT22;3686;52.678;13.252;2022-07-29T06:45:29;17.90;99.90
7290;DHT22;3686;52.678;13.252;2022-07-29T06:47:54;18.00;99.90
7290;DHT22;3686;52.678;13.252;2022-07-29T06:50:20;18.00;99.90
7290;DHT22;3686;52.678;13.252;2022-07-29T06:52:47;18.00;99.90
7290;DHT22;3686;52.678;13.252;2022-07-29T06:55:13;18.10;99.90
7290;DHT22;3686;52.678;13.252;2022-07-29T06:57:39;18.10;99.90
7290;DHT22;3686;52.678;13.252;2022-07-29T07:00:05;18.20;99.90
7290;DHT22;3686;52.678;13.252;2022-07-29T07:02:31;18.20;99.90
7290;DHT22;3686;52.678;13.252;2022-07-29T07:04:57;18.30;99.90
7290;DHT22;3686;52.678;13.252;2022-07-29T07:07:24;18.40;99.90
7290;DHT22;3686;52.678;13.252;2022-07-29T07:09:49;18.40;99.90
7290;DHT22;3686;52.678;13.252;2022-07-29T07:12:15;18.50;99.90
7290;DHT22;3686;52.678;13.252;2022-07-29T07:14:41;18.50;99.90
7290;DHT22;3686;52.678;13.252;2022-07-29T07:17:07;18.60;99.90
7290;DHT22;3686;52.678;13.252;2022-07-29T07:19:33;18.70;99.90
7290;DHT22;3686;52.678;13.252;2022-07-29T07:21:59;18.70;99.90
7290;DHT22;3686;52.678;13.252;2022-07-29T07:24:24;18.80;99.90
7290;DHT22;3686;52.678;13.252;2022-07-29T07:26:50;18.80;99.90
7290;DHT22;3686;52.678;13.252;2022-07-29T07:29:16;18.90;99.90
7290;DHT22;3686;52.678;13.252;2022-07-29T07:31:42;18.90;99.90
7290;DHT22;3686;52.678;13.252;2022-07-29T07:34:07;19.00;99.90
7290;DHT22;3686;52.678;13.252;2022-07-29T07:36:33;19.10;99.90
7290;DHT22;3686;52.678;13.252;2022-07-29T07:38:59;19.10;99.90
7290;DHT22;3686;52.678;13.252;2022-07-29T07:41:25;19.30;99.90
7290;DHT22;3686;52.678;13.252;2022-07-29T07:43:50;19.40;99.90
7290;DHT22;3686;52.678;13.252;2022-07-29T07:46:16;19.60;99.90
7290;DHT22;3686;52.678;13.252;2022-07-29T07:48:42;19.80;99.90
7290;DHT22;3686;52.678;13.252;2022-07-29T07:51:07;19.90;99.90
7290;DHT22;3686;52.678;13.252;2022-07-29T07:53:33;20.00;99.90
7290;DHT22;3686;52.678;13.252;2022-07-29T07:56:00;20.20;99.90
7290;DHT22;3686;52.678;13.252;2022-07-29T07:58:26;20.40;99.90
7290;DHT22;3686;52.678;13.252;2022-07-29T08:00:52;20.40;99.90
7290;DHT22;3686;52.678;13.252;2022-07-29T08:03:18;20.50;99.90
7290;DHT22;3686;52.678;13.252;2022-07-29T08:05:43;20.60;99.90
7290;DHT22;3686;52.678;13.252;2022-07-29T08:08:09;20.70;99.90
7290;DHT22;3686;52.678;13.252;2022-07-29T08:10:35;20.70;99.90
7290;DHT22;3686;52.678;13.252;2022-07-29T08:13:23;20.80;99.90
7290;DHT22;3686;52.678;13.252;2022-07-29T08:15:50;20.90;99.90
7290;DHT22;3686;52.678;13.252;2022-07-29T08:18:27;21.00;99.90
7290;DHT22;3686;52.678;13.252;2022-07-29T08:20:53;21.10;99.90
7290;DHT22;3686;52.678;13.252;2022-07-29T08:23:19;21.20;99.90
7290;DHT22;3686;52.678;13.252;2022-07-29T08:25:45;21.40;99.90
7290;DHT22;3686;52.678;13.252;2022-07-29T08:28:10;21.50;99.90
7290;DHT22;3686;52.678;13.252;2022-07-29T08:30:36;21.50;99.90
7290;DHT22;3686;52.678;13.252;2022-07-29T08:33:02;21.60;99.90
7290;DHT22;3686;52.678;13.252;2022-07-29T08:35:27;21.80;99.90
7290;DHT22;3686;52.678;13.252;2022-07-29T08:37:53;21.90;99.90
7290;DHT22;3686;52.678;13.252;2022-07-29T08:40:20;22.00;99.90
7290;DHT22;3686;52.678;13.252;2022-07-29T08:42:46;22.10;99.90
7290;DHT22;3686;52.678;13.252;2022-07-29T08:45:12;22.30;99.90
7290;DHT22;3686;52.678;13.252;2022-07-29T08:47:41;22.40;99.90
7290;DHT22;3686;52.678;13.252;2022-07-29T08:50:08;22.50;99.90
7290;DHT22;3686;52.678;13.252;2022-07-29T08:52:39;22.60;99.90
7290;DHT22;3686;52.678;13.252;2022-07-29T08:55:06;22.70;98.30
7290;DHT22;3686;52.678;13.252;2022-07-29T08:57:33;22.80;98.80
7290;DHT22;3686;52.678;13.252;2022-07-29T09:00:00;23.00;99.90
7290;DHT22;3686;52.678;13.252;2022-07-29T09:02:29;23.20;99.00
7290;DHT22;3686;52.678;13.252;2022-07-29T09:05:00;23.30;99.90
7290;DHT22;3686;52.678;13.252;2022-07-29T09:07:27;23.50;93.90
7290;DHT22;3686;52.678;13.252;2022-07-29T09:09:53;23.60;93.80
7290;DHT22;3686;52.678;13.252;2022-07-29T09:12:18;23.70;91.70
7290;DHT22;3686;52.678;13.252;2022-07-29T09:14:44;23.80;91.80
7290;DHT22;3686;52.678;13.252;2022-07-29T09:17:10;24.00;80.90
7290;DHT22;3686;52.678;13.252;2022-07-29T09:19:37;24.10;85.80
7290;DHT22;3686;52.678;13.252;2022-07-29T09:22:05;24.20;83.20
7290;DHT22;3686;52.678;13.252;2022-07-29T09:27:01;24.40;73.50
7290;DHT22;3686;52.678;13.252;2022-07-29T09:29:27;24.50;70.90
7290;DHT22;3686;52.678;13.252;2022-07-29T09:31:54;24.50;69.20
7290;DHT22;3686;52.678;13.252;2022-07-29T09:34:27;24.50;65.20
7290;DHT22;3686;52.678;13.252;2022-07-29T09:36:57;24.60;63.90
7290;DHT22;3686;52.678;13.252;2022-07-29T09:39:35;24.60;61.90
7290;DHT22;3686;52.678;13.252;2022-07-29T09:42:04;24.70;64.20
7290;DHT22;3686;52.678;13.252;2022-07-29T09:44:47;24.80;60.90
7290;DHT22;3686;52.678;13.252;2022-07-29T09:47:14;24.90;60.50
7290;DHT22;3686;52.678;13.252;2022-07-29T09:49:56;25.10;60.60
7290;DHT22;3686;52.678;13.252;2022-07-29T09:52:24;25.20;57.00
7290;DHT22;3686;52.678;13.252;2022-07-29T09:54:50;25.30;59.20
7290;DHT22;3686;52.678;13.252;2022-07-29T09:57:28;25.20;55.40
7290;DHT22;3686;52.678;13.252;2022-07-29T10:00:05;25.20;55.70
7290;DHT22;3686;52.678;13.252;2022-07-29T10:02:33;25.10;54.00
7290;DHT22;3686;52.678;13.252;2022-07-29T10:05:02;25.10;49.20
7290;DHT22;3686;52.678;13.252;2022-07-29T10:07:53;25.10;47.50
7290;DHT22;3686;52.678;13.252;2022-07-29T10:10:23;25.30;52.00
7290;DHT22;3686;52.678;13.252;2022-07-29T10:13:00;25.60;49.10
7290;DHT22;3686;52.678;13.252;2022-07-29T10:15:29;25.80;45.90
7290;DHT22;3686;52.678;13.252;2022-07-29T10:17:57;25.90;48.00
7290;DHT22;3686;52.678;13.252;2022-07-29T10:20:23;26.10;45.60
7290;DHT22;3686;52.678;13.252;2022-07-29T10:22:50;26.40;46.20
7290;DHT22;3686;52.678;13.252;2022-07-29T10:25:17;26.60;47.20
7290;DHT22;3686;52.678;13.252;2022-07-29T10:27:44;26.70;45.50
7290;DHT22;3686;52.678;13.252;2022-07-29T10:30:11;26.80;44.30
7290;DHT22;3686;52.678;13.252;2022-07-29T10:35:33;26.80;43.80
7290;DHT22;3686;52.678;13.252;2022-07-29T10:46:27;26.90;39.90
7290;DHT22;3686;52.678;13.252;2022-07-29T10:54:19;26.40;37.00
7290;DHT22;3686;52.678;13.252;2022-07-29T10:57:27;26.30;38.70
7290;DHT22;3686;52.678;13.252;2022-07-29T11:07:25;26.00;32.50
7290;DHT22;3686;52.678;13.252;2022-07-29T11:20:38;27.30;38.50
7290;DHT22;3686;52.678;13.252;2022-07-29T11:23:27;27.80;39.10
7290;DHT22;3686;52.678;13.252;2022-07-29T11:29:08;28.40;39.20
7290;DHT22;3686;52.678;13.252;2022-07-29T11:31:47;28.40;37.90
7290;DHT22;3686;52.678;13.252;2022-07-29T11:34:19;28.20;38.40
7290;DHT22;3686;52.678;13.252;2022-07-29T11:47:22;28.40;37.90
7290;DHT22;3686;52.678;13.252;2022-07-29T11:49:50;28.80;39.20
7290;DHT22;3686;52.678;13.252;2022-07-29T11:52:17;29.10;40.90
7290;DHT22;3686;52.678;13.252;2022-07-29T11:54:43;29.40;39.20
7290;DHT22;3686;52.678;13.252;2022-07-29T11:57:09;29.50;42.80
7290;DHT22;3686;52.678;13.252;2022-07-29T11:59:42;29.70;40.50
7290;DHT22;3686;52.678;13.252;2022-07-29T12:02:08;29.70;38.70
7290;DHT22;3686;52.678;13.252;2022-07-29T12:04:48;29.60;36.60
7290;DHT22;3686;52.678;13.252;2022-07-29T12:07:14;29.60;38.10
7290;DHT22;3686;52.678;13.252;2022-07-29T12:09:40;29.40;36.10
7290;DHT22;3686;52.678;13.252;2022-07-29T12:12:05;29.40;33.70
7290;DHT22;3686;52.678;13.252;2022-07-29T12:14:32;29.30;36.10
7290;DHT22;3686;52.678;13.252;2022-07-29T12:16:59;29.30;36.10
7290;DHT22;3686;52.678;13.252;2022-07-29T12:19:26;29.20;33.20
7290;DHT22;3686;52.678;13.252;2022-07-29T12:21:54;29.10;31.40
7290;DHT22;3686;52.678;13.252;2022-07-29T12:24:20;29.00;29.90
7290;DHT22;3686;52.678;13.252;2022-07-29T12:26:58;29.00;30.80
7290;DHT22;3686;52.678;13.252;2022-07-29T12:29:24;29.10;32.60
7290;DHT22;3686;52.678;13.252;2022-07-29T12:31:53;29.30;32.10
7290;DHT22;3686;52.678;13.252;2022-07-29T12:34:23;29.40;31.70
7290;DHT22;3686;52.678;13.252;2022-07-29T12:36:51;29.50;34.00
7290;DHT22;3686;52.678;13.252;2022-07-29T12:39:17;29.50;34.80
7290;DHT22;3686;52.678;13.252;2022-07-29T12:41:43;29.60;32.90
7290;DHT22;3686;52.678;13.252;2022-07-29T12:44:10;29.80;34.40
7290;DHT22;3686;52.678;13.252;2022-07-29T12:46:36;30.00;37.00
7290;DHT22;3686;52.678;13.252;2022-07-29T12:49:03;30.20;36.90
7290;DHT22;3686;52.678;13.252;2022-07-29T12:54:12;30.30;33.30
7290;DHT22;3686;52.678;13.252;2022-07-29T12:56:39;30.30;50.50
7290;DHT22;3686;52.678;13.252;2022-07-29T12:59:17;30.40;35.80
7290;DHT22;3686;52.678;13.252;2022-07-29T13:01:44;30.50;32.70
7290;DHT22;3686;52.678;13.252;2022-07-29T13:04:10;30.60;33.50
7290;DHT22;3686;52.678;13.252;2022-07-29T13:06:38;30.60;33.40
7290;DHT22;3686;52.678;13.252;2022-07-29T13:11:41;30.50;33.50
7290;DHT22;3686;52.678;13.252;2022-07-29T13:14:09;30.50;32.30
7290;DHT22;3686;52.678;13.252;2022-07-29T13:16:36;30.70;35.20
7290;DHT22;3686;52.678;13.252;2022-07-29T13:19:11;31.00;34.70
7290;DHT22;3686;52.678;13.252;2022-07-29T13:21:38;31.10;34.00
7290;DHT22;3686;52.678;13.252;2022-07-29T13:24:07;31.20;34.40
7290;DHT22;3686;52.678;13.252;2022-07-29T13:26:34;31.40;34.90
7290;DHT22;3686;52.678;13.252;2022-07-29T13:28:59;31.40;34.00
7290;DHT22;3686;52.678;13.252;2022-07-29T13:31:25;31.30;33.70
7290;DHT22;3686;52.678;13.252;2022-07-29T13:33:51;31.30;34.30
7290;DHT22;3686;52.678;13.252;2022-07-29T13:36:17;31.40;50.50
7290;DHT22;3686;52.678;13.252;2022-07-29T13:38:43;31.40;32.90
7290;DHT22;3686;52.678;13.252;2022-07-29T13:41:08;31.30;32.20
7290;DHT22;3686;52.678;13.252;2022-07-29T13:43:34;31.10;34.30
7290;DHT22;3686;52.678;13.252;2022-07-29T13:46:00;30.90;32.00
7290;DHT22;3686;52.678;13.252;2022-07-29T13:48:26;30.60;31.30
7290;DHT22;3686;52.678;13.252;2022-07-29T13:50:51;30.30;28.50
7290;DHT22;3686;52.678;13.252;2022-07-29T13:53:17;30.10;28.30
7290;DHT22;3686;52.678;13.252;2022-07-29T13:55:42;30.00;26.80
7290;DHT22;3686;52.678;13.252;2022-07-29T13:58:08;29.80;27.40
7290;DHT22;3686;52.678;13.252;2022-07-29T14:00:34;29.80;28.20
7290;DHT22;3686;52.678;13.252;2022-07-29T14:02:59;30.00;27.90
7290;DHT22;3686;52.678;13.252;2022-07-29T14:05:25;30.30;29.30
7290;DHT22;3686;52.678;13.252;2022-07-29T14:07:51;30.40;28.00
7290;DHT22;3686;52.678;13.252;2022-07-29T14:10:17;30.70;29.60
7290;DHT22;3686;52.678;13.252;2022-07-29T14:12:42;30.80;29.40
7290;DHT22;3686;52.678;13.252;2022-07-29T14:15:08;31.00;31.40
7290;DHT22;3686;52.678;13.252;2022-07-29T14:17:34;31.00;30.20
7290;DHT22;3686;52.678;13.252;2022-07-29T14:20:00;31.10;29.80
7290;DHT22;3686;52.678;13.252;2022-07-29T14:22:26;31.30;29.60
7290;DHT22;3686;52.678;13.252;2022-07-29T14:24:51;31.40;29.70
7290;DHT22;3686;52.678;13.252;2022-07-29T14:27:17;31.40;31.30
7290;DHT22;3686;52.678;13.252;2022-07-29T14:29:43;31.20;29.50
7290;DHT22;3686;52.678;13.252;2022-07-29T14:32:09;31.00;28.50
7290;DHT22;3686;52.678;13.252;2022-07-29T14:34:40;30.70;40.10
7290;DHT22;3686;52.678;13.252;2022-07-29T14:37:06;30.30;26.60
7290;DHT22;3686;52.678;13.252;2022-07-29T14:39:32;30.00;24.40
7290;DHT22;3686;52.678;13.252;2022-07-29T14:41:58;29.70;23.40
7290;DHT22;3686;52.678;13.252;2022-07-29T14:44:24;29.50;22.60
7290;DHT22;3686;52.678;13.252;2022-07-29T14:46:54;29.60;22.60
7290;DHT22;3686;52.678;13.252;2022-07-29T14:49:20;29.70;23.30
7290;DHT22;3686;52.678;13.252;2022-07-29T14:51:45;29.90;24.30
7290;DHT22;3686;52.678;13.252;2022-07-29T14:54:11;29.90;25.60
7290;DHT22;3686;52.678;13.252;2022-07-29T14:56:36;30.00;26.90
7290;DHT22;3686;52.678;13.252;2022-07-29T14:59:02;30.10;25.70
7290;DHT22;3686;52.678;13.252;2022-07-29T15:01:28;30.10;26.60
7290;DHT22;3686;52.678;13.252;2022-07-29T15:03:54;30.20;25.00
7290;DHT22;3686;52.678;13.252;2022-07-29T15:06:20;30.20;26.30
7290;DHT22;3686;52.678;13.252;2022-07-29T15:08:45;30.20;24.00
7290;DHT22;3686;52.678;13.252;2022-07-29T15:11:11;30.10;24.00
7290;DHT22;3686;52.678;13.252;2022-07-29T15:13:37;30.10;24.00
7290;DHT22;3686;52.678;13.252;2022-07-29T15:16:04;30.00;24.40
7290;DHT22;3686;52.678;13.252;2022-07-29T15:18:30;29.90;23.30
7290;DHT22;3686;52.678;13.252;2022-07-29T15:20:55;29.90;22.60
7290;DHT22;3686;52.678;13.252;2022-07-29T15:23:21;29.80;24.60
7290;DHT22;3686;52.678;13.252;2022-07-29T15:25:46;29.70;23.50
7290;DHT22;3686;52.678;13.252;2022-07-29T15:28:12;29.60;22.10
7290;DHT22;3686;52.678;13.252;2022-07-29T15:30:38;29.60;22.20
7290;DHT22;3686;52.678;13.252;2022-07-29T15:33:08;29.60;36.50
7290;DHT22;3686;52.678;13.252;2022-07-29T15:35:38;29.60;21.50
7290;DHT22;3686;52.678;13.252;2022-07-29T15:38:04;29.60;20.60
7290;DHT22;3686;52.678;13.252;2022-07-29T15:40:29;29.60;20.30
7290;DHT22;3686;52.678;13.252;2022-07-29T15:42:55;29.50;19.10
7290;DHT22;3686;52.678;13.252;2022-07-29T15:45:21;29.30;20.50
7290;DHT22;3686;52.678;13.252;2022-07-29T15:47:47;29.10;20.40
7290;DHT22;3686;52.678;13.252;2022-07-29T15:50:12;28.90;29.90
7290;DHT22;3686;52.678;13.252;2022-07-29T15:52:41;28.70;18.50
7290;DHT22;3686;52.678;13.252;2022-07-29T15:55:08;28.60;18.10
7290;DHT22;3686;52.678;13.252;2022-07-29T15:57:34;28.40;19.40
7290;DHT22;3686;52.678;13.252;2022-07-29T15:59:59;28.20;19.70
7290;DHT22;3686;52.678;13.252;2022-07-29T16:02:25;28.10;18.60
7290;DHT22;3686;52.678;13.252;2022-07-29T16:04:51;28.00;19.50
7290;DHT22;3686;52.678;13.252;2022-07-29T16:07:16;27.90;17.40
7290;DHT22;3686;52.678;13.252;2022-07-29T16:09:43;27.90;16.00
7290;DHT22;3686;52.678;13.252;2022-07-29T16:12:09;27.90;15.40
7290;DHT22;3686;52.678;13.252;2022-07-29T16:14:34;27.80;13.50
7290;DHT22;3686;52.678;13.252;2022-07-29T16:17:00;27.90;15.20
7290;DHT22;3686;52.678;13.252;2022-07-29T16:19:29;27.80;12.20
7290;DHT22;3686;52.678;13.252;2022-07-29T16:21:56;27.90;13.80
7290;DHT22;3686;52.678;13.252;2022-07-29T16:24:21;28.00;15.40
7290;DHT22;3686;52.678;13.252;2022-07-29T16:26:48;28.00;16.00
7290;DHT22;3686;52.678;13.252;2022-07-29T16:29:14;28.10;14.30
7290;DHT22;3686;52.678;13.252;2022-07-29T16:31:42;28.10;15.20
7290;DHT22;3686;52.678;13.252;2022-07-29T16:34:08;28.20;15.00
7290;DHT22;3686;52.678;13.252;2022-07-29T16:36:34;28.20;16.90
7290;DHT22;3686;52.678;13.252;2022-07-29T16:38:59;28.10;13.00
7290;DHT22;3686;52.678;13.252;2022-07-29T16:41:25;28.00;13.60
7290;DHT22;3686;52.678;13.252;2022-07-29T16:43:51;27.90;12.10
7290;DHT22;3686;52.678;13.252;2022-07-29T16:46:16;27.80;12.50
7290;DHT22;3686;52.678;13.252;2022-07-29T16:48:42;27.60;12.80
7290;DHT22;3686;52.678;13.252;2022-07-29T16:51:08;27.60;12.00
7290;DHT22;3686;52.678;13.252;2022-07-29T16:53:34;27.50;11.00
7290;DHT22;3686;52.678;13.252;2022-07-29T16:56:00;27.40;12.10